Time;durP1;ratioP1;P1;durP2;ratioP2;P2;SDS_P1;SDS_P2;PMS_P1;PMS_P2;Temp;Humidity;BMP_temperature;BMP_pressure;BME280_temperature;BME280_humidity;BME280_pressure;Samples;Min_cycle;Max_cycle;Signal;HPM_P1;HPM_P2
2022/10/25 00:01:41;;;;;;;5.60;3.17;;;16.80;99.90;;;;;;5012602;28;20481;-80
2022/10/25 00:04:08;;;;;;;3.67;2.83;;;16.70;99.90;;;;;;5013150;28;20954;-80
2022/10/25 00:06:35;;;;;;;2.90;2.60;;;16.70;99.90;;;;;;5012425;28;20810;-80
2022/10/25 00:09:03;;;;;;;3.20;2.87;;;16.70;99.90;;;;;;5012510;28;20506;-80
2022/10/25 00:11:32;;;;;;;6.10;3.03;;;16.70;99.90;;;;;;5012266;28;20959;-80
2022/10/25 00:14:01;;;;;;;3.83;3.30;;;16.70;99.90;;;;;;5012957;28;20490;-77
2022/10/25 00:16:34;;;;;;;5.10;3.77;;;16.60;99.90;;;;;;5012763;28;21008;-80
2022/10/25 00:19:01;;;;;;;3.57;3.27;;;16.60;99.90;;;;;;5012914;28;20475;-77
2022/10/25 00:21:28;;;;;;;5.13;3.43;;;16.60;99.90;;;;;;5012465;28;20495;-77
2022/10/25 00:23:57;;;;;;;5.50;3.70;;;16.60;99.90;;;;;;5012899;28;20538;-77
2022/10/25 00:26:25;;;;;;;4.60;2.47;;;16.50;99.90;;;;;;5012469;28;20470;-81
2022/10/25 00:28:54;;;;;;;5.43;3.37;;;16.50;99.90;;;;;;5012690;28;20554;-80
2022/10/25 00:31:21;;;;;;;3.70;2.80;;;16.50;99.90;;;;;;5012496;28;20470;-78
2022/10/25 00:33:48;;;;;;;3.70;2.83;;;16.50;99.90;;;;;;5012869;28;20557;-77
2022/10/25 00:36:17;;;;;;;5.47;3.30;;;16.50;99.90;;;;;;5012830;28;20470;-77
2022/10/25 00:38:45;;;;;;;4.60;3.50;;;16.50;99.90;;;;;;5008284;28;20926;-80
2022/10/25 00:41:21;;;;;;;7.93;5.13;;;16.50;99.90;;;;;;5008092;28;20813;-82
2022/10/25 00:43:51;;;;;;;4.00;3.50;;;16.50;99.90;;;;;;5012495;28;20463;-81
2022/10/25 00:46:23;;;;;;;3.43;3.13;;;16.50;99.90;;;;;;5012968;28;20543;-77
2022/10/25 00:48:55;;;;;;;6.60;3.63;;;16.50;99.90;;;;;;5012684;28;20932;-77
2022/10/25 00:51:28;;;;;;;3.30;2.73;;;16.40;99.90;;;;;;5013162;28;20557;-78
2022/10/25 00:54:04;;;;;;;3.10;2.47;;;16.40;99.90;;;;;;5012492;28;20559;-77
2022/10/25 00:56:35;;;;;;;9.53;4.30;;;16.40;99.90;;;;;;5012056;28;20968;-77
2022/10/25 00:59:08;;;;;;;3.77;3.30;;;16.40;99.90;;;;;;5012788;28;20475;-77
2022/10/25 01:01:36;;;;;;;5.40;2.73;;;16.40;99.90;;;;;;5011961;28;20463;-77
2022/10/25 01:04:10;;;;;;;4.93;2.97;;;16.30;99.90;;;;;;5011421;28;20478;-77
2022/10/25 01:06:39;;;;;;;3.13;2.80;;;16.30;99.90;;;;;;5012063;28;21038;-77
2022/10/25 01:09:11;;;;;;;6.13;3.03;;;16.30;99.90;;;;;;5012952;28;20462;-77
2022/10/25 01:11:38;;;;;;;3.53;3.17;;;16.30;99.90;;;;;;5012107;28;21013;-80
2022/10/25 01:14:09;;;;;;;5.67;3.17;;;16.40;99.90;;;;;;5012793;28;20535;-77
2022/10/25 01:16:42;;;;;;;3.40;3.17;;;16.40;99.90;;;;;;5012180;28;20541;-78
2022/10/25 01:19:29;;;;;;;4.13;2.70;;;16.40;99.90;;;;;;5012670;28;20468;-80
2022/10/25 01:21:58;;;;;;;2.97;2.67;;;16.40;99.90;;;;;;5015986;28;20481;-80
2022/10/25 01:24:53;;;;;;;4.97;4.40;;;16.40;99.90;;;;;;5015066;28;20988;-77
2022/10/25 01:28:02;;;;;;;3.93;3.37;;;16.40;99.90;;;;;;5012850;28;21024;-78
2022/10/25 01:31:04;;;;;;;4.30;3.50;;;16.40;99.90;;;;;;5014899;28;20507;-79
2022/10/25 01:33:38;;;;;;;4.73;2.73;;;16.40;99.90;;;;;;4996014;28;20533;-77
2022/10/25 01:36:12;;;;;;;3.70;3.00;;;16.40;99.90;;;;;;5016015;28;20474;-77
2022/10/25 01:38:45;;;;;;;4.10;3.40;;;16.40;99.90;;;;;;5015020;28;20477;-80
2022/10/25 01:41:22;;;;;;;4.47;3.37;;;16.40;99.90;;;;;;5015597;28;20472;-79
2022/10/25 01:44:01;;;;;;;3.37;3.07;;;16.50;99.90;;;;;;5015082;28;20476;-77
2022/10/25 01:46:36;;;;;;;3.43;3.13;;;16.50;99.90;;;;;;5014926;28;20835;-79
2022/10/25 01:49:09;;;;;;;5.73;4.23;;;16.50;99.90;;;;;;5015657;28;20880;-77
2022/10/25 01:51:36;;;;;;;7.57;3.60;;;16.50;99.90;;;;;;5015126;28;20544;-77
2022/10/25 01:54:16;;;;;;;5.67;4.73;;;16.50;99.90;;;;;;5015244;28;20466;-77
2022/10/25 01:56:49;;;;;;;5.90;3.53;;;16.50;99.90;;;;;;5015489;28;20466;-77
2022/10/25 01:59:30;;;;;;;5.10;3.27;;;16.50;99.90;;;;;;5015308;28;20472;-78
2022/10/25 02:02:07;;;;;;;4.23;2.60;;;16.50;99.90;;;;;;5015417;28;20790;-80
2022/10/25 02:04:54;;;;;;;4.63;3.57;;;16.50;99.90;;;;;;5014464;28;20467;-79
2022/10/25 02:07:25;;;;;;;6.37;3.47;;;16.50;99.90;;;;;;5027246;28;20482;-78
2022/10/25 02:10:02;;;;;;;4.07;3.40;;;16.50;99.90;;;;;;5028396;28;20529;-76
2022/10/25 02:12:33;;;;;;;3.23;2.93;;;16.40;99.90;;;;;;5030321;28;20474;-81
2022/10/25 02:15:07;;;;;;;3.53;3.20;;;16.40;99.90;;;;;;5026774;28;20527;-77
2022/10/25 02:17:41;;;;;;;6.23;3.13;;;16.40;99.90;;;;;;5024815;28;20473;-77
2022/10/25 02:20:11;;;;;;;2.73;2.53;;;16.40;99.90;;;;;;5015334;28;21617;-77
2022/10/25 02:22:43;;;;;;;4.30;3.03;;;16.40;99.90;;;;;;5029693;28;20975;-77
2022/10/25 02:25:11;;;;;;;6.57;3.37;;;16.40;99.90;;;;;;5027531;28;20485;-78
2022/10/25 02:27:39;;;;;;;6.93;3.10;;;16.40;99.90;;;;;;5026928;28;20553;-78
2022/10/25 02:30:08;;;;;;;5.40;2.90;;;16.50;99.90;;;;;;5025798;28;20492;-77
2022/10/25 02:32:35;;;;;;;6.27;2.87;;;16.50;99.90;;;;;;5023963;28;20475;-77
2022/10/25 02:35:03;;;;;;;4.00;2.70;;;16.40;99.90;;;;;;5022445;28;20480;-77
2022/10/25 02:37:32;;;;;;;4.37;2.40;;;16.50;99.90;;;;;;5020856;28;20470;-79
2022/10/25 02:40:00;;;;;;;2.70;2.50;;;16.50;99.90;;;;;;5018432;28;20481;-79
2022/10/25 02:42:29;;;;;;;8.60;3.20;;;16.50;99.90;;;;;;5018851;28;20573;-80
2022/10/25 02:44:56;;;;;;;6.50;2.73;;;16.50;99.90;;;;;;5018110;28;20490;-79
2022/10/25 02:47:24;;;;;;;7.67;3.50;;;16.50;99.90;;;;;;5017855;28;20492;-79
2022/10/25 02:49:51;;;;;;;4.27;2.53;;;16.50;99.90;;;;;;5017990;28;20474;-79
2022/10/25 02:52:18;;;;;;;3.40;2.90;;;16.50;99.90;;;;;;5017865;28;20498;-80
2022/10/25 02:54:46;;;;;;;6.00;3.30;;;16.50;99.90;;;;;;5019522;28;20467;-80
2022/10/25 02:57:13;;;;;;;3.60;2.70;;;16.50;99.90;;;;;;5012870;28;20466;-77
2022/10/25 02:59:43;;;;;;;3.40;2.60;;;16.50;99.90;;;;;;5012825;28;20562;-78
2022/10/25 03:02:10;;;;;;;4.90;3.73;;;16.50;99.90;;;;;;5017342;28;20831;-77
2022/10/25 03:04:37;;;;;;;4.43;2.60;;;16.50;99.90;;;;;;5017131;28;20470;-77
2022/10/25 03:07:04;;;;;;;3.23;2.90;;;16.50;99.90;;;;;;5016449;28;20459;-80
2022/10/25 03:09:31;;;;;;;5.10;3.40;;;16.60;99.90;;;;;;5016772;28;20591;-77
2022/10/25 03:12:02;;;;;;;5.07;2.70;;;16.60;99.90;;;;;;5015530;28;20549;-77
2022/10/25 03:14:29;;;;;;;5.50;3.70;;;16.60;99.90;;;;;;5015078;28;20973;-77
2022/10/25 03:16:56;;;;;;;4.80;2.60;;;16.60;99.90;;;;;;5014285;28;20463;-78
2022/10/25 03:19:23;;;;;;;8.43;3.50;;;16.60;99.90;;;;;;5015649;28;20491;-80
2022/10/25 03:21:50;;;;;;;2.77;2.57;;;16.60;99.90;;;;;;5015895;28;20484;-78
2022/10/25 03:24:17;;;;;;;5.80;3.80;;;16.60;99.90;;;;;;5017814;28;20538;-81
2022/10/25 03:26:44;;;;;;;2.70;2.20;;;16.60;99.90;;;;;;5007762;28;20479;-77
2022/10/25 03:29:13;;;;;;;4.13;2.80;;;16.60;99.90;;;;;;5011675;28;21084;-80
2022/10/25 03:31:40;;;;;;;5.60;3.17;;;16.60;99.90;;;;;;4994758;28;20540;-79
2022/10/25 03:34:08;;;;;;;4.10;3.00;;;16.60;99.90;;;;;;4994638;28;20990;-80
2022/10/25 03:36:35;;;;;;;3.50;2.50;;;16.60;99.90;;;;;;4995328;28;20467;-78
2022/10/25 03:39:02;;;;;;;6.13;2.70;;;16.70;99.90;;;;;;4995178;28;20546;-80
2022/10/25 03:41:30;;;;;;;5.27;2.90;;;16.60;99.90;;;;;;4994805;28;20571;-80
2022/10/25 03:43:58;;;;;;;3.93;2.17;;;16.60;99.90;;;;;;4995895;28;20492;-79
2022/10/25 03:46:26;;;;;;;5.63;3.00;;;16.60;99.90;;;;;;4995157;28;20478;-77
2022/10/25 03:48:53;;;;;;;2.63;2.40;;;16.70;99.90;;;;;;4996745;28;20503;-78
2022/10/25 03:51:20;;;;;;;2.20;2.00;;;16.60;99.90;;;;;;4993557;28;21021;-80
2022/10/25 03:53:47;;;;;;;3.73;2.30;;;16.60;99.90;;;;;;4993726;28;20483;-81
2022/10/25 03:56:17;;;;;;;2.60;2.00;;;16.60;99.90;;;;;;4993992;28;20507;-80
2022/10/25 03:58:44;;;;;;;3.27;2.57;;;16.60;99.90;;;;;;4993432;28;20543;-78
2022/10/25 04:01:11;;;;;;;4.13;2.70;;;16.60;99.90;;;;;;4993128;28;20564;-78
2022/10/25 04:03:40;;;;;;;3.80;2.20;;;16.70;99.90;;;;;;4994068;28;20542;-80
2022/10/25 04:06:07;;;;;;;2.30;2.10;;;16.60;99.90;;;;;;4993082;28;20478;-80
2022/10/25 04:08:34;;;;;;;3.93;2.57;;;16.70;99.90;;;;;;4993646;28;20475;-78
2022/10/25 04:11:17;;;;;;;3.93;2.60;;;16.60;99.90;;;;;;4993119;28;20495;-80
2022/10/25 04:13:44;;;;;;;3.80;2.53;;;16.70;99.90;;;;;;4994018;28;20475;-78
2022/10/25 04:16:11;;;;;;;2.27;2.00;;;16.70;99.90;;;;;;4993603;28;20473;-78
2022/10/25 04:18:41;;;;;;;6.43;2.27;;;16.70;99.90;;;;;;4994455;28;20861;-78
2022/10/25 04:21:08;;;;;;;2.20;2.00;;;16.70;99.90;;;;;;4993955;28;20472;-78
2022/10/25 04:23:35;;;;;;;2.23;1.90;;;16.70;99.90;;;;;;4994826;28;20480;-78
2022/10/25 04:26:05;;;;;;;3.23;2.53;;;16.70;99.90;;;;;;4992844;28;20503;-78
2022/10/25 04:28:32;;;;;;;2.37;1.90;;;16.60;99.90;;;;;;4993895;28;20467;-78
2022/10/25 04:30:59;;;;;;;3.33;1.97;;;16.60;99.90;;;;;;4994015;28;20468;-81
2022/10/25 04:33:26;;;;;;;3.60;1.90;;;16.60;99.90;;;;;;5009405;28;20546;-80
2022/10/25 04:35:56;;;;;;;3.97;2.40;;;16.60;99.90;;;;;;5008556;28;20552;-81
2022/10/25 04:38:23;;;;;;;2.40;1.77;;;16.60;99.90;;;;;;5011852;28;20466;-81
2022/10/25 04:40:55;;;;;;;2.70;1.77;;;16.60;99.90;;;;;;5012716;28;20510;-80
2022/10/25 04:43:23;;;;;;;2.23;1.90;;;16.60;99.90;;;;;;5012783;28;20563;-80
2022/10/25 04:45:50;;;;;;;2.63;1.70;;;16.60;99.90;;;;;;5012649;28;20499;-81
2022/10/25 04:48:18;;;;;;;1.93;1.73;;;16.70;99.90;;;;;;5012478;28;20581;-77
2022/10/25 04:50:46;;;;;;;2.20;1.70;;;16.70;99.90;;;;;;5013053;28;20543;-79
2022/10/25 04:53:15;;;;;;;1.90;1.60;;;16.60;99.90;;;;;;5011672;28;20509;-78
2022/10/25 04:55:42;;;;;;;1.60;1.10;;;16.70;99.90;;;;;;5015968;28;21010;-80
2022/10/25 04:58:09;;;;;;;2.73;2.10;;;16.60;99.90;;;;;;5016119;28;20478;-77
2022/10/25 05:03:52;;;;;;;4.70;1.30;;;16.60;99.90;;;;;;5297120;23;20478;-80
2022/10/25 05:06:24;;;;;;;2.03;1.40;;;16.60;99.90;;;;;;5052183;28;20478;-79
2022/10/25 05:08:53;;;;;;;5.90;1.90;;;16.60;99.90;;;;;;5056234;28;20502;-79
2022/10/25 05:11:22;;;;;;;3.93;1.40;;;16.60;99.90;;;;;;5054948;28;20496;-80
2022/10/25 05:13:49;;;;;;;2.50;1.40;;;16.50;99.90;;;;;;5027977;28;20485;-80
2022/10/25 05:19:24;;;;;;;4.37;1.70;;;16.50;99.90;;;;;;5032679;28;20478;-78
2022/10/25 05:21:54;;;;;;;7.90;4.10;;;16.50;99.90;;;;;;5036289;28;20467;-81
2022/10/25 05:24:23;;;;;;;6.93;6.23;;;16.40;99.90;;;;;;5025538;28;20476;-76
2022/10/25 05:26:50;;;;;;;5.80;4.50;;;16.40;99.90;;;;;;5036128;28;20782;-77
2022/10/25 05:29:18;;;;;;;3.20;2.53;;;16.40;99.90;;;;;;5034721;28;20506;-76
2022/10/25 05:31:46;;;;;;;2.83;1.87;;;16.30;99.90;;;;;;5036632;28;20477;-76
2022/10/25 05:34:13;;;;;;;2.93;2.20;;;16.30;99.90;;;;;;5034510;28;20470;-77
2022/10/25 05:36:40;;;;;;;3.00;2.10;;;16.30;99.90;;;;;;5034857;28;20554;-77
2022/10/25 05:39:08;;;;;;;9.80;6.77;;;16.30;99.90;;;;;;5035831;28;20474;-77
2022/10/25 05:41:37;;;;;;;8.60;6.50;;;16.20;99.90;;;;;;5034755;28;20468;-79
2022/10/25 05:44:06;;;;;;;11.03;5.70;;;16.20;99.90;;;;;;5035967;28;20466;-80
2022/10/25 05:46:33;;;;;;;8.80;6.03;;;16.20;99.90;;;;;;5034968;28;20855;-76
2022/10/25 05:49:00;;;;;;;7.00;4.50;;;16.10;99.90;;;;;;5035346;28;20531;-77
2022/10/25 05:51:29;;;;;;;5.00;2.87;;;16.20;99.90;;;;;;5024611;28;20539;-80
2022/10/25 05:53:58;;;;;;;2.57;2.13;;;16.10;99.90;;;;;;5035237;28;20926;-77
2022/10/25 05:56:27;;;;;;;4.77;2.13;;;16.20;99.90;;;;;;5034782;28;20472;-80
2022/10/25 05:58:56;;;;;;;2.23;2.03;;;16.10;99.90;;;;;;5035185;28;20531;-78
2022/10/25 06:01:26;;;;;;;4.43;2.10;;;16.10;99.90;;;;;;5034989;28;20476;-81
2022/10/25 06:03:55;;;;;;;3.40;2.00;;;16.10;99.90;;;;;;5035726;28;20464;-81
2022/10/25 06:06:23;;;;;;;5.53;2.37;;;16.10;99.90;;;;;;5033862;28;20470;-80
2022/10/25 06:08:55;;;;;;;9.67;2.30;;;16.10;99.90;;;;;;5035403;28;20534;-80
2022/10/25 06:11:22;;;;;;;2.53;1.57;;;16.10;99.90;;;;;;5035208;28;20536;-81
2022/10/25 06:13:51;;;;;;;6.27;2.07;;;16.20;99.90;;;;;;5035346;28;20975;-80
2022/10/25 06:16:21;;;;;;;3.97;2.47;;;16.10;99.90;;;;;;5035344;28;20468;-80
2022/10/25 06:18:48;;;;;;;1.93;1.50;;;16.10;99.90;;;;;;5035367;28;20465;-80
2022/10/25 06:21:17;;;;;;;4.60;2.20;;;16.10;99.90;;;;;;5035752;28;20572;-80
2022/10/25 06:23:46;;;;;;;4.60;2.07;;;16.20;99.90;;;;;;5034539;28;20546;-78
2022/10/25 06:26:22;;;;;;;6.03;1.90;;;16.20;99.90;;;;;;5034923;28;20819;-78
2022/10/25 06:28:53;;;;;;;1.83;1.43;;;16.20;99.90;;;;;;5034635;28;20539;-78
2022/10/25 06:31:22;;;;;;;3.50;2.13;;;16.30;99.90;;;;;;5025216;28;20497;-78
2022/10/25 06:33:49;;;;;;;2.23;2.00;;;16.30;99.90;;;;;;5034094;28;20542;-78
2022/10/25 06:36:18;;;;;;;3.07;2.07;;;16.30;99.90;;;;;;5034747;28;20478;-78
2022/10/25 06:38:46;;;;;;;5.10;1.70;;;16.30;99.90;;;;;;5034384;28;20470;-78
2022/10/25 06:41:14;;;;;;;5.57;2.53;;;16.30;99.90;;;;;;5034106;28;20542;-76
2022/10/25 06:43:41;;;;;;;3.30;1.77;;;16.30;99.90;;;;;;5033583;28;20476;-77
2022/10/25 06:46:10;;;;;;;3.13;1.87;;;16.30;99.90;;;;;;5033835;28;20518;-77
2022/10/25 06:48:38;;;;;;;6.10;2.07;;;16.40;99.90;;;;;;5034083;28;20477;-79
2022/10/25 06:51:08;;;;;;;5.37;2.53;;;16.40;99.90;;;;;;5034720;28;20560;-79
2022/10/25 06:53:35;;;;;;;5.13;1.90;;;16.40;99.90;;;;;;5032964;28;20497;-79
2022/10/25 06:56:03;;;;;;;6.07;2.40;;;16.40;99.90;;;;;;5025326;28;20462;-79
2022/10/25 06:58:31;;;;;;;2.67;2.00;;;16.50;99.90;;;;;;5033815;28;20467;-79
2022/10/25 07:01:02;;;;;;;4.27;2.63;;;16.50;99.90;;;;;;5039620;28;20504;-80
2022/10/25 07:03:34;;;;;;;4.07;2.33;;;16.50;99.90;;;;;;5041507;28;20477;-79
2022/10/25 07:06:04;;;;;;;1.70;1.60;;;16.60;99.90;;;;;;5044459;28;20449;-79
2022/10/25 07:08:32;;;;;;;1.33;1.23;;;16.60;99.90;;;;;;5044695;28;20478;-79
2022/10/25 07:10:59;;;;;;;2.73;1.70;;;16.60;99.90;;;;;;5039878;28;20454;-80
2022/10/25 07:13:26;;;;;;;3.10;2.77;;;16.70;99.90;;;;;;5040570;28;20470;-79
2022/10/25 07:15:53;;;;;;;3.30;1.60;;;16.70;99.90;;;;;;5042654;28;20468;-80
2022/10/25 07:18:21;;;;;;;2.53;1.60;;;16.70;99.90;;;;;;5045498;28;20495;-80
2022/10/25 07:20:49;;;;;;;3.20;2.00;;;16.70;99.90;;;;;;5044228;28;20499;-79
2022/10/25 07:23:18;;;;;;;8.20;2.67;;;16.70;99.90;;;;;;5043381;28;20479;-77
2022/10/25 07:25:46;;;;;;;4.40;2.70;;;16.80;99.90;;;;;;5039121;28;20470;-77
2022/10/25 07:28:13;;;;;;;6.90;3.87;;;16.70;99.90;;;;;;5040405;28;20468;-77
2022/10/25 07:30:45;;;;;;;4.37;2.83;;;16.80;99.90;;;;;;5038865;28;20496;-77
2022/10/25 07:33:13;;;;;;;4.80;2.43;;;16.80;99.90;;;;;;5038490;28;20522;-80
2022/10/25 07:35:40;;;;;;;5.77;2.43;;;16.80;99.90;;;;;;5037757;28;20471;-80
2022/10/25 07:38:07;;;;;;;4.47;2.30;;;16.80;99.90;;;;;;5039076;28;20537;-77
2022/10/25 07:40:36;;;;;;;3.57;2.80;;;16.80;99.90;;;;;;5043696;28;20466;-81
2022/10/25 07:43:03;;;;;;;3.50;2.33;;;16.80;99.90;;;;;;5048743;28;20478;-80
2022/10/25 07:45:30;;;;;;;4.17;2.97;;;16.80;99.90;;;;;;5048851;28;20535;-81
2022/10/25 07:47:57;;;;;;;4.00;2.63;;;16.80;99.90;;;;;;5048208;28;20482;-80
2022/10/25 07:50:24;;;;;;;7.33;4.87;;;16.90;99.90;;;;;;5049337;28;20488;-81
2022/10/25 07:52:51;;;;;;;7.07;4.13;;;16.90;99.90;;;;;;5047485;28;20540;-78
2022/10/25 07:55:24;;;;;;;4.30;3.90;;;16.90;99.90;;;;;;5036734;28;20492;-81
2022/10/25 07:58:08;;;;;;;12.83;4.30;;;16.90;99.90;;;;;;5044774;28;20489;-80
2022/10/25 08:00:35;;;;;;;11.03;5.40;;;16.80;99.90;;;;;;5050861;28;20469;-78
2022/10/25 08:03:03;;;;;;;5.43;3.40;;;16.80;99.90;;;;;;5044778;28;20507;-78
2022/10/25 08:08:14;;;;;;;9.10;4.90;;;16.80;99.90;;;;;;5045490;28;20466;-79
2022/10/25 08:10:43;;;;;;;7.00;4.20;;;16.70;99.90;;;;;;5045616;28;20461;-80
2022/10/25 08:13:11;;;;;;;7.93;6.30;;;16.70;99.90;;;;;;5048197;28;20473;-77
2022/10/25 08:15:39;;;;;;;7.37;5.33;;;16.70;99.90;;;;;;5047244;28;20531;-78
2022/10/25 08:18:08;;;;;;;9.57;5.00;;;16.70;99.90;;;;;;5047643;28;20490;-80
2022/10/25 08:20:35;;;;;;;6.40;5.13;;;16.70;99.90;;;;;;5047923;28;20476;-80
2022/10/25 08:23:02;;;;;;;6.57;4.80;;;16.60;99.90;;;;;;5046300;28;20470;-78
2022/10/25 08:25:30;;;;;;;5.57;4.50;;;16.60;99.90;;;;;;5041501;28;20554;-80
2022/10/25 08:27:57;;;;;;;4.40;3.50;;;16.70;99.90;;;;;;5039421;28;20470;-78
2022/10/25 08:30:28;;;;;;;7.00;4.17;;;16.70;99.90;;;;;;5035345;28;20591;-77
2022/10/25 08:32:55;;;;;;;6.87;4.10;;;16.70;99.90;;;;;;5036702;28;20967;-78
2022/10/25 08:35:23;;;;;;;6.27;3.40;;;16.70;99.90;;;;;;5036233;28;20477;-78
2022/10/25 08:37:50;;;;;;;6.30;3.10;;;16.60;99.90;;;;;;5036695;28;20547;-78
2022/10/25 08:40:19;;;;;;;5.30;2.90;;;16.60;99.90;;;;;;5036917;28;20789;-81
2022/10/25 08:43:00;;;;;;;3.53;2.40;;;16.60;99.90;;;;;;5035027;28;20481;-78
2022/10/25 08:45:34;;;;;;;3.50;2.50;;;16.60;99.90;;;;;;5035570;28;20539;-78
2022/10/25 08:48:04;;;;;;;4.00;2.80;;;16.60;99.90;;;;;;5034006;28;20468;-79
2022/10/25 08:50:38;;;;;;;6.70;2.70;;;16.60;99.90;;;;;;5034522;28;21033;-80
2022/10/25 08:53:12;;;;;;;5.30;3.37;;;16.60;99.90;;;;;;5032045;28;20524;-81
2022/10/25 08:55:42;;;;;;;3.63;2.30;;;16.60;99.90;;;;;;5032853;28;20530;-80
2022/10/25 08:58:25;;;;;;;4.00;2.40;;;16.60;99.90;;;;;;5022148;28;20466;-78
2022/10/25 09:00:53;;;;;;;3.97;2.50;;;16.60;99.90;;;;;;5021263;28;20485;-78
2022/10/25 09:03:24;;;;;;;3.97;2.50;;;16.70;99.90;;;;;;5031186;28;20561;-78
2022/10/25 09:06:05;;;;;;;9.50;2.93;;;16.70;99.90;;;;;;5032498;28;20489;-78
2022/10/25 09:08:50;;;;;;;9.43;2.67;;;16.80;99.90;;;;;;5032791;28;20540;-78
2022/10/25 09:11:26;;;;;;;3.43;2.10;;;16.90;99.90;;;;;;5032428;28;20503;-77
2022/10/25 09:13:59;;;;;;;3.87;2.20;;;16.90;99.90;;;;;;5032769;28;20859;-77
2022/10/25 09:16:36;;;;;;;6.53;3.07;;;17.00;99.90;;;;;;5032194;28;20546;-80
2022/10/25 09:19:08;;;;;;;6.77;3.17;;;17.10;99.90;;;;;;5031796;28;20504;-77
2022/10/25 09:21:48;;;;;;;7.67;2.50;;;17.10;99.90;;;;;;5023237;28;20464;-77
2022/10/25 09:24:21;;;;;;;3.57;1.93;;;17.10;99.90;;;;;;5031859;28;20555;-77
2022/10/25 09:27:00;;;;;;;6.80;1.93;;;17.10;99.90;;;;;;5033158;28;20553;-77
2022/10/25 09:29:32;;;;;;;9.37;6.20;;;17.10;99.90;;;;;;5032975;28;20451;-80
2022/10/25 09:32:10;;;;;;;5.93;4.70;;;17.20;99.90;;;;;;5033641;28;20553;-80
2022/10/25 09:34:38;;;;;;;6.73;3.47;;;17.20;99.90;;;;;;5032185;28;20482;-77
2022/10/25 09:37:13;;;;;;;5.30;4.13;;;17.20;99.90;;;;;;5033315;28;20502;-80
2022/10/25 09:39:44;;;;;;;9.33;3.97;;;17.30;99.90;;;;;;5032372;28;21173;-80
2022/10/25 09:42:20;;;;;;;5.70;3.43;;;17.30;99.90;;;;;;5034871;28;20558;-80
2022/10/25 09:44:52;;;;;;;3.13;2.80;;;17.30;99.90;;;;;;5035530;28;20979;-81
2022/10/25 09:47:30;;;;;;;4.80;2.57;;;17.30;99.90;;;;;;5035354;28;20946;-80
2022/10/25 09:50:01;;;;;;;4.63;3.43;;;17.40;99.90;;;;;;5035967;28;20482;-81
2022/10/25 09:52:38;;;;;;;7.60;5.30;;;17.40;99.90;;;;;;5034562;28;20488;-80
2022/10/25 09:55:32;;;;;;;10.03;7.60;;;17.50;99.90;;;;;;5034629;28;20565;-80
2022/10/25 09:58:00;;;;;;;5.60;3.70;;;17.50;99.90;;;;;;5034742;28;20781;-79
2022/10/25 10:00:27;;;;;;;4.30;3.40;;;17.50;99.90;;;;;;5034123;28;20459;-80
2022/10/25 10:02:56;;;;;;;5.73;4.13;;;17.50;99.90;;;;;;5034980;28;20479;-77
2022/10/25 10:05:23;;;;;;;4.77;3.40;;;17.60;99.90;;;;;;5034224;28;21019;-77
2022/10/25 10:07:51;;;;;;;4.47;2.87;;;17.60;99.90;;;;;;5035161;28;20487;-77
2022/10/25 10:10:21;;;;;;;6.07;4.00;;;17.60;99.90;;;;;;5034250;28;20471;-77
2022/10/25 10:12:53;;;;;;;4.17;3.20;;;17.60;99.90;;;;;;5034944;28;20475;-78
2022/10/25 10:15:25;;;;;;;6.30;3.03;;;17.60;99.90;;;;;;5034369;28;20546;-79
2022/10/25 10:18:22;;;;;;;5.80;3.13;;;17.60;99.90;;;;;;5033280;28;20475;-77
2022/10/25 10:21:01;;;;;;;4.43;3.50;;;17.60;99.90;;;;;;5034438;28;20475;-78
2022/10/25 10:23:31;;;;;;;3.57;2.83;;;17.60;99.90;;;;;;5034660;28;20554;-76
2022/10/25 10:26:02;;;;;;;6.23;3.77;;;17.60;99.90;;;;;;5034226;28;20491;-77
2022/10/25 10:28:30;;;;;;;4.33;2.90;;;17.60;99.90;;;;;;5035050;28;20547;-76
2022/10/25 10:30:58;;;;;;;5.90;3.00;;;17.70;99.90;;;;;;5033841;28;20471;-78
2022/10/25 10:33:30;;;;;;;2.93;2.57;;;17.60;99.90;;;;;;5034466;28;20857;-77
2022/10/25 10:36:17;;;;;;;5.10;3.90;;;17.70;99.90;;;;;;5033818;28;20472;-77
2022/10/25 10:38:46;;;;;;;6.53;4.50;;;17.60;99.90;;;;;;5034791;28;20478;-77
2022/10/25 10:41:15;;;;;;;6.20;4.27;;;17.70;99.90;;;;;;5025646;28;20463;-77
2022/10/25 10:43:42;;;;;;;4.53;3.53;;;17.70;99.90;;;;;;5035494;28;20549;-77
2022/10/25 10:46:13;;;;;;;3.43;2.93;;;17.70;99.90;;;;;;5026761;28;20557;-77
2022/10/25 10:48:43;;;;;;;9.37;3.40;;;17.70;99.90;;;;;;5035487;28;21013;-77
2022/10/25 10:51:13;;;;;;;3.03;2.73;;;17.80;99.90;;;;;;5034087;28;21097;-77
2022/10/25 10:53:40;;;;;;;3.57;2.93;;;17.80;99.90;;;;;;5034513;28;20854;-77
2022/10/25 10:56:09;;;;;;;7.30;4.00;;;17.80;99.90;;;;;;5034018;28;20544;-78
2022/10/25 10:58:39;;;;;;;7.57;4.20;;;17.90;99.90;;;;;;5034608;28;20553;-80
2022/10/25 11:01:09;;;;;;;4.40;2.87;;;17.90;99.90;;;;;;5034414;28;20526;-80
2022/10/25 11:03:45;;;;;;;3.73;3.10;;;17.90;99.90;;;;;;5034386;28;20550;-80
2022/10/25 11:06:16;;;;;;;9.00;4.20;;;17.90;99.90;;;;;;5034476;28;20472;-80
2022/10/25 11:08:45;;;;;;;6.33;4.27;;;18.00;99.90;;;;;;5034992;28;20496;-77
2022/10/25 11:11:21;;;;;;;4.50;2.73;;;18.00;99.90;;;;;;5033573;28;20547;-77
2022/10/25 11:13:54;;;;;;;4.17;3.20;;;18.00;99.90;;;;;;5034651;28;21087;-76
2022/10/25 11:16:42;;;;;;;4.73;3.37;;;18.00;99.90;;;;;;5034176;28;20456;-77
2022/10/25 11:19:29;;;;;;;2.87;2.67;;;18.10;99.90;;;;;;5033087;28;20463;-78
2022/10/25 11:22:06;;;;;;;7.43;3.80;;;18.20;99.90;;;;;;5034657;28;20471;-79
2022/10/25 11:24:41;;;;;;;5.90;4.30;;;18.20;99.90;;;;;;5033997;28;20463;-78
2022/10/25 11:27:17;;;;;;;6.83;3.40;;;18.20;99.90;;;;;;5034018;28;20513;-78
2022/10/25 11:30:02;;;;;;;4.00;3.50;;;18.30;99.90;;;;;;5033085;28;20495;-77
2022/10/25 11:32:48;;;;;;;5.77;3.93;;;18.30;99.90;;;;;;5034122;28;20480;-77
2022/10/25 11:35:32;;;;;;;3.20;2.60;;;18.40;99.90;;;;;;5033136;28;20553;-77
2022/10/25 11:38:05;;;;;;;9.97;2.80;;;18.40;99.90;;;;;;5032888;28;20479;-77
2022/10/25 11:40:40;;;;;;;4.90;2.90;;;18.40;99.90;;;;;;5032964;28;21020;-77
2022/10/25 11:43:26;;;;;;;3.87;2.93;;;18.40;99.90;;;;;;5032720;28;20471;-77
2022/10/25 11:46:00;;;;;;;5.17;3.03;;;18.40;99.90;;;;;;5032799;28;20526;-77
2022/10/25 11:48:43;;;;;;;3.47;2.93;;;18.50;99.90;;;;;;5033222;28;20479;-77
2022/10/25 11:51:21;;;;;;;4.97;2.60;;;18.50;99.90;;;;;;5032695;28;20551;-77
2022/10/25 11:54:07;;;;;;;3.63;2.47;;;18.50;99.90;;;;;;5033142;28;20479;-80
2022/10/25 11:56:47;;;;;;;3.70;2.90;;;18.50;99.90;;;;;;5032978;28;20475;-79
2022/10/25 11:59:32;;;;;;;3.80;2.70;;;18.40;99.90;;;;;;5033459;28;20814;-81
2022/10/25 12:02:16;;;;;;;3.10;2.87;;;18.40;99.90;;;;;;5035565;28;20482;-78
2022/10/25 12:04:55;;;;;;;4.67;3.10;;;18.40;99.90;;;;;;5035462;28;20540;-77
2022/10/25 12:07:28;;;;;;;4.73;3.23;;;18.40;99.90;;;;;;5030262;28;20487;-78
2022/10/25 12:10:04;;;;;;;6.33;4.07;;;18.40;99.90;;;;;;5032433;28;20555;-78
2022/10/25 12:12:41;;;;;;;3.67;3.30;;;18.50;99.90;;;;;;5052821;28;20470;-77
2022/10/25 12:15:17;;;;;;;6.03;4.00;;;18.50;99.90;;;;;;5039326;28;20482;-77
2022/10/25 12:17:44;;;;;;;6.27;4.13;;;18.50;99.90;;;;;;5041320;28;20933;-77
2022/10/25 12:20:20;;;;;;;5.67;3.63;;;18.50;99.90;;;;;;5045754;28;20871;-77
2022/10/25 12:22:50;;;;;;;4.80;4.10;;;18.50;99.90;;;;;;5043654;28;20478;-76
2022/10/25 12:25:23;;;;;;;7.07;5.77;;;18.50;99.90;;;;;;5049680;28;20470;-76
2022/10/25 12:27:59;;;;;;;8.03;5.80;;;18.50;99.90;;;;;;5038120;28;20568;-77
2022/10/25 12:30:29;;;;;;;8.30;5.70;;;18.50;99.90;;;;;;5054000;28;20451;-79
2022/10/25 12:33:02;;;;;;;9.20;5.37;;;18.50;99.90;;;;;;5039563;28;20491;-76
2022/10/25 12:35:32;;;;;;;5.90;5.23;;;18.60;99.90;;;;;;5026130;28;20499;-77
2022/10/25 12:38:04;;;;;;;5.03;4.50;;;18.60;99.90;;;;;;5038700;28;20474;-79
2022/10/25 12:40:38;;;;;;;5.90;4.10;;;18.60;99.90;;;;;;5045429;28;20555;-80
2022/10/25 12:43:14;;;;;;;4.40;4.00;;;18.60;99.90;;;;;;5049673;28;20540;-81
2022/10/25 12:46:03;;;;;;;3.50;3.10;;;18.60;99.90;;;;;;5042762;28;20536;-80
2022/10/25 12:48:57;;;;;;;3.40;2.60;;;18.70;99.90;;;;;;5026357;28;20471;-79
2022/10/25 12:51:41;;;;;;;4.33;2.50;;;18.70;99.90;;;;;;5038757;28;20879;-80
2022/10/25 12:54:24;;;;;;;3.03;2.07;;;18.60;99.90;;;;;;5039133;28;20530;-80
2022/10/25 12:57:07;;;;;;;6.60;3.53;;;18.60;99.90;;;;;;5030254;28;20953;-79
2022/10/25 12:59:55;;;;;;;3.80;2.63;;;18.60;99.90;;;;;;5038471;28;21054;-79
2022/10/25 13:03:03;;;;;;;2.60;2.17;;;18.60;99.90;;;;;;5038416;28;20534;-81
2022/10/25 13:06:12;;;;;;;2.40;2.20;;;18.60;99.90;;;;;;5037670;28;20460;-80
2022/10/25 13:08:41;;;;;;;7.37;3.60;;;18.60;99.90;;;;;;4972472;28;20444;-80
2022/10/25 13:11:09;;;;;;;6.50;4.43;;;18.60;99.90;;;;;;5044600;28;20464;-80
2022/10/25 13:13:40;;;;;;;5.30;3.30;;;18.60;99.90;;;;;;5044507;28;20622;-80
2022/10/25 13:16:09;;;;;;;6.13;3.40;;;18.70;99.90;;;;;;5042344;28;20953;-81
2022/10/25 13:18:47;;;;;;;3.40;2.90;;;18.70;99.90;;;;;;5041293;28;20555;-80